Mudcat — WCY8255 — position and weather

sailwx.info

Track history (hours):
 
Tides and Currents Weather Stations Pressure Air Temp Water Temp Dewpoint Dewpoint Depression Visibility Wind Speed Wind Dir Waves Ship Positions

Mudcat

Owner: TAURUS MARINE, SAN FRANCISCO, CA. More information available from US FCC via Universal Licensing System and Coast Guard Vessel Documentation Center.

Last reported at 2017-Mar-23 00:25 UTC. Time now 2017-Mar-25 00:05 UTC.
Position N 47°36' W 122°22'.

Length 22 m; draft 2 m.

Type: Tug. MMSI: 366969750.

Date/timePositionNaut miles runAvg speedWind from/ knotsBaromVisibWave heightAir tempDewpointWater temp
2017-Mar-23 00:25N 47°36' W 122°22'4 3.2
2017-Mar-22 23:07N 47°40' W 122°24'  
2017-Mar-15 13:33N 47°34' W 122°21'7 7.0
2017-Mar-15 12:33N 47°40' W 122°26'5 4.6
2017-Mar-15 11:34N 47°39' W 122°19'2 2.1
2017-Mar-15 10:33N 47°38' W 122°16'0 0.3
2017-Mar-15 09:33N 47°39' W 122°16'1 0.5
2017-Mar-15 08:33N 47°39' W 122°16'0 0.4
2017-Mar-15 07:33N 47°38' W 122°16'0 0.0
2017-Mar-15 06:33N 47°38' W 122°16'0 0.0
2017-Mar-15 05:31N 47°38' W 122°16'0 0.2
2017-Mar-15 04:33N 47°39' W 122°16'0 0.2
2017-Mar-15 03:33N 47°39' W 122°16'1 1.2
2017-Mar-15 02:33N 47°39' W 122°18'4 4.1
2017-Mar-15 01:33N 47°40' W 122°24'4 4.5
2017-Mar-15 00:33N 47°36' W 122°22'2 0.1
2017-Mar-13 15:14N 47°34' W 122°21'4 6.2
2017-Mar-13 14:33N 47°37' W 122°25'3 2.6
2017-Mar-13 13:33N 47°40' W 122°23'5 4.8
2017-Mar-13 12:33N 47°38' W 122°16'0 0.1
2017-Mar-13 11:33N 47°38' W 122°16'0 0.4
2017-Mar-13 10:33N 47°39' W 122°16'0 0.4
2017-Mar-13 09:33N 47°38' W 122°16'1 0.5
2017-Mar-13 08:33N 47°38' W 122°15'0 0.2
2017-Mar-13 07:33N 47°38' W 122°15'0 0.4
2017-Mar-13 06:33N 47°39' W 122°15'5 5.2
2017-Mar-13 05:33N 47°40' W 122°23'2 2.4
2017-Mar-13 04:33N 47°38' W 122°25'  
Track history (hours):
 
Tides and Currents Weather Stations Pressure Air Temp Water Temp Dewpoint Dewpoint Depression Visibility Wind Speed Wind Dir Waves Ship Positions

Mudcat

Owner: TAURUS MARINE, SAN FRANCISCO, CA. More information available from US FCC via Universal Licensing System and Coast Guard Vessel Documentation Center.

Last reported at 2017-Mar-23 00:25 UTC. Time now 2017-Mar-25 00:05 UTC.
Position N 47°36' W 122°22'.

Length 22 m; draft 2 m.

Type: Tug. MMSI: 366969750.

Date/timePositionNaut miles runAvg speedWind from/ knotsBaromVisibWave heightAir tempDewpointWater temp
2017-Mar-23 00:25N 47°36' W 122°22'4 3.2
2017-Mar-22 23:07N 47°40' W 122°24'  
2017-Mar-15 13:33N 47°34' W 122°21'7 7.0
2017-Mar-15 12:33N 47°40' W 122°26'5 4.6
2017-Mar-15 11:34N 47°39' W 122°19'2 2.1
2017-Mar-15 10:33N 47°38' W 122°16'0 0.3
2017-Mar-15 09:33N 47°39' W 122°16'1 0.5
2017-Mar-15 08:33N 47°39' W 122°16'0 0.4
2017-Mar-15 07:33N 47°38' W 122°16'0 0.0
2017-Mar-15 06:33N 47°38' W 122°16'0 0.0
2017-Mar-15 05:31N 47°38' W 122°16'0 0.2
2017-Mar-15 04:33N 47°39' W 122°16'0 0.2
2017-Mar-15 03:33N 47°39' W 122°16'1 1.2
2017-Mar-15 02:33N 47°39' W 122°18'4 4.1
2017-Mar-15 01:33N 47°40' W 122°24'4 4.5
2017-Mar-15 00:33N 47°36' W 122°22'2 0.1
2017-Mar-13 15:14N 47°34' W 122°21'4 6.2
2017-Mar-13 14:33N 47°37' W 122°25'3 2.6
2017-Mar-13 13:33N 47°40' W 122°23'5 4.8
2017-Mar-13 12:33N 47°38' W 122°16'0 0.1
2017-Mar-13 11:33N 47°38' W 122°16'0 0.4
2017-Mar-13 10:33N 47°39' W 122°16'0 0.4
2017-Mar-13 09:33N 47°38' W 122°16'1 0.5
2017-Mar-13 08:33N 47°38' W 122°15'0 0.2
2017-Mar-13 07:33N 47°38' W 122°15'0 0.4
2017-Mar-13 06:33N 47°39' W 122°15'5 5.2
2017-Mar-13 05:33N 47°40' W 122°23'2 2.4
2017-Mar-13 04:33N 47°38' W 122°25'  

Dump ship's entire track history